Time;durP1;ratioP1;P1;durP2;ratioP2;P2;SDS_P1;SDS_P2;PMS_P1;PMS_P2;Temp;Humidity;BMP_temperature;BMP_pressure;BME280_temperature;BME280_humidity;BME280_pressure;Samples;Min_cycle;Max_cycle;Signal;HPM_P1;HPM_P2
2023/07/29 00:01:43;;;;;;;1.40;1.30;;;;;;;;;;5059189;28;20057;-75
2023/07/29 00:04:09;;;;;;;1.92;1.27;;;;;;;;;;5049824;28;20451;-75
2023/07/29 00:06:35;;;;;;;0.80;0.80;;;;;;;;;;5044545;28;20051;-75
2023/07/29 00:09:01;;;;;;;1.98;1.20;;;;;;;;;;5057500;28;20024;-75
2023/07/29 00:11:26;;;;;;;1.30;1.20;;;;;;;;;;5059325;28;20032;-75
2023/07/29 00:13:52;;;;;;;0.90;0.90;;;;;;;;;;5055959;28;20817;-75
2023/07/29 00:16:21;;;;;;;1.27;1.13;;;;;;;;;;5068327;28;20100;-75
2023/07/29 00:18:46;;;;;;;1.08;1.05;;;;;;;;;;5054574;28;20039;-75
2023/07/29 00:21:11;;;;;;;1.45;1.35;;;;;;;;;;5061297;28;20172;-75
2023/07/29 00:23:37;;;;;;;1.00;0.98;;;;;;;;;;5053231;28;20068;-75
2023/07/29 00:26:02;;;;;;;0.73;0.73;;;;;;;;;;5047067;28;20036;-75
2023/07/29 00:28:27;;;;;;;0.80;0.80;;;;;;;;;;5059242;28;20032;-74
2023/07/29 00:30:53;;;;;;;0.98;0.90;;;;;;;;;;5059562;28;20021;-75
2023/07/29 00:33:20;;;;;;;1.00;1.00;;;;;;;;;;5045470;28;20184;-75
2023/07/29 00:35:45;;;;;;;1.13;1.02;;;;;;;;;;5049079;28;20066;-75
2023/07/29 00:38:10;;;;;;;1.23;1.10;;;;;;;;;;5050205;28;20032;-75
2023/07/29 00:40:36;;;;;;;1.27;1.17;;;;;;;;;;5035969;28;20060;-74
2023/07/29 00:43:02;;;;;;;1.30;1.20;;;;;;;;;;5060745;28;20063;-75
2023/07/29 00:45:30;;;;;;;1.40;1.27;;;;;;;;;;5043641;28;22111;-75
2023/07/29 00:47:56;;;;;;;1.73;1.10;;;;;;;;;;5053637;28;20036;-75
2023/07/29 00:50:21;;;;;;;0.85;0.85;;;;;;;;;;5050311;28;20035;-75
2023/07/29 00:52:49;;;;;;;1.13;0.90;;;;;;;;;;5060706;28;20559;-75
2023/07/29 00:55:15;;;;;;;0.90;0.90;;;;;;;;;;5059213;28;20033;-75
2023/07/29 00:57:42;;;;;;;2.35;1.10;;;;;;;;;;5054355;28;20040;-75
2023/07/29 01:00:08;;;;;;;0.93;0.88;;;;;;;;;;5048914;28;20123;-75
2023/07/29 01:02:34;;;;;;;1.40;1.02;;;;;;;;;;5070409;28;20048;-75
2023/07/29 01:05:01;;;;;;;1.15;0.90;;;;;;;;;;5064721;28;20035;-75
2023/07/29 01:07:32;;;;;;;0.80;0.80;;;;;;;;;;5061752;28;20130;-75
2023/07/29 01:10:07;;;;;;;0.80;0.80;;;;;;;;;;5061026;28;20048;-75
2023/07/29 01:12:52;;;;;;;3.25;1.23;;;;;;;;;;5054117;28;20047;-75
2023/07/29 01:15:41;;;;;;;0.90;0.90;;;;;;;;;;5072198;28;20408;-75
2023/07/29 01:18:26;;;;;;;1.45;0.77;;;;;;;;;;5066755;28;20630;-74
2023/07/29 01:20:54;;;;;;;1.33;1.00;;;;;;;;;;5051928;28;20184;-74
2023/07/29 01:23:24;;;;;;;0.63;0.63;;;;;;;;;;5040851;28;20093;-74
2023/07/29 01:25:49;;;;;;;1.30;1.20;;;;;;;;;;5058996;28;20082;-75
2023/07/29 01:28:15;;;;;;;0.93;0.93;;;;;;;;;;5059371;28;20416;-75
2023/07/29 01:30:44;;;;;;;1.60;0.80;;;;;;;;;;5062227;28;20036;-74
2023/07/29 01:33:33;;;;;;;1.33;1.23;;;;;;;;;;5054487;28;20032;-75
2023/07/29 01:36:06;;;;;;;1.00;0.80;;;;;;;;;;5060476;28;20095;-75
2023/07/29 01:38:40;;;;;;;0.80;0.80;;;;;;;;;;5043725;28;20033;-74
2023/07/29 01:41:07;;;;;;;1.70;0.85;;;;;;;;;;5044178;28;20041;-74
2023/07/29 01:43:33;;;;;;;0.80;0.80;;;;;;;;;;5064844;28;20043;-74
2023/07/29 01:46:00;;;;;;;1.35;1.08;;;;;;;;;;5068233;28;20120;-74
2023/07/29 01:48:27;;;;;;;1.40;1.20;;;;;;;;;;5046244;28;20036;-74
2023/07/29 01:50:52;;;;;;;1.05;1.05;;;;;;;;;;5065652;28;20036;-74
2023/07/29 01:53:18;;;;;;;2.22;1.10;;;;;;;;;;5059546;28;20687;-74
2023/07/29 01:55:44;;;;;;;1.50;1.13;;;;;;;;;;5069347;28;20040;-74
2023/07/29 01:58:10;;;;;;;1.20;1.10;;;;;;;;;;5060722;28;20043;-74
2023/07/29 02:00:35;;;;;;;1.50;1.10;;;;;;;;;;5063417;28;20028;-74
2023/07/29 02:03:01;;;;;;;1.50;1.20;;;;;;;;;;5061312;28;20067;-74
2023/07/29 02:05:26;;;;;;;0.98;0.93;;;;;;;;;;5060571;28;20097;-74
2023/07/29 02:07:52;;;;;;;1.45;1.35;;;;;;;;;;5054496;28;20448;-75
2023/07/29 02:10:17;;;;;;;1.65;0.98;;;;;;;;;;5038715;28;20029;-75
2023/07/29 02:12:42;;;;;;;1.08;0.93;;;;;;;;;;5054266;28;20505;-74
2023/07/29 02:15:09;;;;;;;1.20;1.10;;;;;;;;;;5053449;28;20036;-75
2023/07/29 02:17:34;;;;;;;1.30;1.20;;;;;;;;;;5034442;28;20698;-75
2023/07/29 02:20:00;;;;;;;1.02;0.93;;;;;;;;;;5048316;28;20028;-74
2023/07/29 02:22:25;;;;;;;1.42;1.33;;;;;;;;;;5054466;28;20040;-75
2023/07/29 02:24:50;;;;;;;1.15;0.90;;;;;;;;;;5036963;28;20044;-75
2023/07/29 02:27:16;;;;;;;1.20;1.10;;;;;;;;;;5065107;28;20611;-74
2023/07/29 02:29:41;;;;;;;0.90;0.90;;;;;;;;;;5059566;28;20032;-74
2023/07/29 02:32:07;;;;;;;1.13;1.02;;;;;;;;;;5069602;28;20035;-74
2023/07/29 02:34:32;;;;;;;0.90;0.90;;;;;;;;;;5061004;28;20471;-74
2023/07/29 02:36:57;;;;;;;1.13;1.02;;;;;;;;;;5049105;28;20041;-74
2023/07/29 02:39:23;;;;;;;1.02;1.00;;;;;;;;;;5051449;28;20029;-74
2023/07/29 02:41:49;;;;;;;1.52;1.17;;;;;;;;;;5054830;28;20583;-75
2023/07/29 02:44:14;;;;;;;1.00;1.00;;;;;;;;;;5057106;28;20062;-75
2023/07/29 02:46:40;;;;;;;0.75;0.75;;;;;;;;;;5048187;28;20052;-74
2023/07/29 02:49:05;;;;;;;0.80;0.80;;;;;;;;;;5054533;28;20067;-75
2023/07/29 02:51:31;;;;;;;2.33;1.30;;;;;;;;;;5046692;28;20036;-75
2023/07/29 02:53:56;;;;;;;1.40;1.30;;;;;;;;;;5043646;28;20631;-75
2023/07/29 02:56:22;;;;;;;1.30;1.20;;;;;;;;;;5055467;28;20471;-75
2023/07/29 02:58:47;;;;;;;1.08;0.88;;;;;;;;;;5057920;28;20041;-75
2023/07/29 03:01:13;;;;;;;1.08;0.98;;;;;;;;;;5066752;28;20072;-75
2023/07/29 03:03:39;;;;;;;1.63;1.17;;;;;;;;;;5059492;28;20405;-75
2023/07/29 03:06:10;;;;;;;1.48;1.38;;;;;;;;;;5054047;28;20175;-74
2023/07/29 03:08:36;;;;;;;1.02;1.02;;;;;;;;;;5058190;28;20044;-75
2023/07/29 03:11:10;;;;;;;1.13;0.80;;;;;;;;;;5051973;28;20082;-75
2023/07/29 03:13:35;;;;;;;1.80;1.10;;;;;;;;;;5060711;28;20037;-75
2023/07/29 03:16:12;;;;;;;0.93;0.88;;;;;;;;;;5053615;28;20048;-74
2023/07/29 03:18:38;;;;;;;1.33;1.23;;;;;;;;;;5052861;28;20040;-75
2023/07/29 03:21:04;;;;;;;1.05;1.00;;;;;;;;;;5051632;28;20039;-74
2023/07/29 03:23:30;;;;;;;1.00;1.00;;;;;;;;;;5044008;28;20037;-74
2023/07/29 03:25:58;;;;;;;0.88;0.88;;;;;;;;;;5063883;28;20040;-74
2023/07/29 03:28:28;;;;;;;0.93;0.93;;;;;;;;;;5067279;28;20032;-74
2023/07/29 03:30:57;;;;;;;0.80;0.80;;;;;;;;;;5063837;28;20116;-74
2023/07/29 03:33:24;;;;;;;1.10;1.10;;;;;;;;;;5055172;28;20075;-75
2023/07/29 03:35:49;;;;;;;1.27;1.23;;;;;;;;;;5042279;28;20029;-75
2023/07/29 03:38:15;;;;;;;1.17;1.10;;;;;;;;;;5052420;28;20033;-75
2023/07/29 03:40:41;;;;;;;1.00;1.00;;;;;;;;;;5052599;28;20044;-74
2023/07/29 03:43:06;;;;;;;2.78;1.23;;;;;;;;;;5028762;28;20036;-75
2023/07/29 03:45:33;;;;;;;1.20;1.15;;;;;;;;;;5039971;28;20041;-75
2023/07/29 03:47:58;;;;;;;1.10;1.00;;;;;;;;;;5065542;28;20079;-74
2023/07/29 03:50:24;;;;;;;1.25;1.15;;;;;;;;;;5051796;28;20064;-74
2023/07/29 03:52:49;;;;;;;0.75;0.75;;;;;;;;;;5056874;28;20115;-74
2023/07/29 03:55:15;;;;;;;2.08;1.60;;;;;;;;;;5063213;28;20488;-74
2023/07/29 03:57:41;;;;;;;1.45;1.35;;;;;;;;;;5068448;28;20066;-75
2023/07/29 04:00:07;;;;;;;1.40;1.30;;;;;;;;;;5060564;28;20437;-75
2023/07/29 04:02:32;;;;;;;1.27;1.00;;;;;;;;;;5059100;28;20040;-74
2023/07/29 04:04:57;;;;;;;1.08;1.00;;;;;;;;;;5046382;28;20536;-74
2023/07/29 04:07:23;;;;;;;0.77;0.77;;;;;;;;;;5062497;28;20090;-75
2023/07/29 04:09:49;;;;;;;1.20;1.05;;;;;;;;;;5065445;28;20032;-74
2023/07/29 04:12:14;;;;;;;1.30;0.93;;;;;;;;;;5060855;28;20067;-75
2023/07/29 04:14:40;;;;;;;1.10;0.93;;;;;;;;;;5049515;28;20040;-75
2023/07/29 04:17:06;;;;;;;1.00;1.00;;;;;;;;;;5062589;28;20037;-75
2023/07/29 04:19:32;;;;;;;1.30;1.20;;;;;;;;;;5044844;28;20040;-75
2023/07/29 04:21:57;;;;;;;1.67;1.10;;;;;;;;;;5062973;28;20048;-75
2023/07/29 04:24:23;;;;;;;1.30;1.20;;;;;;;;;;5065969;28;20035;-75
2023/07/29 04:26:49;;;;;;;1.48;1.30;;;;;;;;;;5060966;28;20035;-75
2023/07/29 04:29:14;;;;;;;1.40;1.30;;;;;;;;;;5046000;28;20111;-75
2023/07/29 04:31:39;;;;;;;1.30;1.20;;;;;;;;;;5061650;28;20102;-75
2023/07/29 04:34:05;;;;;;;1.35;1.20;;;;;;;;;;5045183;28;20406;-75
2023/07/29 04:36:30;;;;;;;2.42;1.60;;;;;;;;;;5052123;28;20047;-75
2023/07/29 04:38:56;;;;;;;1.40;1.30;;;;;;;;;;5062337;28;20040;-75
2023/07/29 04:41:21;;;;;;;2.47;1.40;;;;;;;;;;5060903;28;20051;-75
2023/07/29 04:43:47;;;;;;;1.60;1.50;;;;;;;;;;5034469;28;20037;-75
2023/07/29 04:46:12;;;;;;;1.30;0.80;;;;;;;;;;5050375;28;20053;-75
2023/07/29 04:48:38;;;;;;;2.05;1.23;;;;;;;;;;5036704;28;20039;-75
2023/07/29 04:51:03;;;;;;;1.00;1.00;;;;;;;;;;5050596;28;20032;-75
2023/07/29 04:53:29;;;;;;;1.63;1.52;;;;;;;;;;5067588;28;20040;-75
2023/07/29 04:55:54;;;;;;;1.63;0.90;;;;;;;;;;5064366;28;20097;-75
2023/07/29 04:58:19;;;;;;;1.65;0.98;;;;;;;;;;5063890;28;20051;-74
2023/07/29 05:00:47;;;;;;;1.33;1.23;;;;;;;;;;5052217;28;20086;-74
2023/07/29 05:03:12;;;;;;;1.67;1.58;;;;;;;;;;5050666;28;20040;-75
2023/07/29 05:05:38;;;;;;;1.60;1.50;;;;;;;;;;5052372;28;20410;-74
2023/07/29 05:08:03;;;;;;;1.10;1.10;;;;;;;;;;5053339;28;20028;-74
2023/07/29 05:10:29;;;;;;;1.73;1.63;;;;;;;;;;5045142;28;20041;-74
2023/07/29 05:12:54;;;;;;;1.15;1.13;;;;;;;;;;5052935;28;20052;-74
2023/07/29 05:15:19;;;;;;;1.77;1.45;;;;;;;;;;5050155;28;20036;-74
2023/07/29 05:17:45;;;;;;;1.73;1.63;;;;;;;;;;5059599;28;20040;-74
2023/07/29 05:20:11;;;;;;;1.75;1.50;;;;;;;;;;5052942;28;20032;-74
2023/07/29 05:22:36;;;;;;;1.23;1.23;;;;;;;;;;5060636;28;20078;-75
2023/07/29 05:25:02;;;;;;;1.67;1.58;;;;;;;;;;5066356;28;20024;-74
2023/07/29 05:27:27;;;;;;;1.55;1.45;;;;;;;;;;5064960;28;20045;-74
2023/07/29 05:29:53;;;;;;;2.25;1.60;;;;;;;;;;5034934;28;20041;-75
2023/07/29 05:32:18;;;;;;;1.83;1.23;;;;;;;;;;5038971;28;21335;-75
2023/07/29 05:34:43;;;;;;;1.52;1.42;;;;;;;;;;5063754;28;20040;-75
2023/07/29 05:37:10;;;;;;;0.90;0.90;;;;;;;;;;5064850;28;20517;-75
2023/07/29 05:39:35;;;;;;;1.63;1.52;;;;;;;;;;5057943;28;20050;-75
2023/07/29 05:42:02;;;;;;;1.30;1.30;;;;;;;;;;5068259;28;20032;-74
2023/07/29 05:44:28;;;;;;;1.90;1.80;;;;;;;;;;5051779;28;20059;-74
2023/07/29 05:46:53;;;;;;;2.25;1.80;;;;;;;;;;5068557;28;20063;-74
2023/07/29 05:49:19;;;;;;;1.95;1.85;;;;;;;;;;5061240;28;20037;-74
2023/07/29 05:51:44;;;;;;;1.73;1.58;;;;;;;;;;5045918;28;20140;-75
2023/07/29 05:54:09;;;;;;;1.65;1.55;;;;;;;;;;5059923;28;20039;-75
2023/07/29 05:56:35;;;;;;;3.45;2.13;;;;;;;;;;5068535;28;20509;-75
2023/07/29 05:59:00;;;;;;;2.50;2.22;;;;;;;;;;5028244;28;20087;-75
2023/07/29 06:01:26;;;;;;;1.95;1.85;;;;;;;;;;5057015;28;20437;-75
2023/07/29 06:03:51;;;;;;;1.67;1.45;;;;;;;;;;5050086;28;20114;-75
2023/07/29 06:06:18;;;;;;;2.10;2.00;;;;;;;;;;5057468;28;20066;-75
2023/07/29 06:08:44;;;;;;;1.85;1.75;;;;;;;;;;5056391;28;20125;-75
2023/07/29 06:11:09;;;;;;;2.35;2.15;;;;;;;;;;5062036;28;20043;-75
2023/07/29 06:13:34;;;;;;;1.67;1.58;;;;;;;;;;5042366;28;20042;-75
2023/07/29 06:16:00;;;;;;;0.90;0.90;;;;;;;;;;5053023;28;20426;-75
2023/07/29 06:18:25;;;;;;;2.33;1.70;;;;;;;;;;5060738;28;20115;-75
2023/07/29 06:20:51;;;;;;;2.38;2.15;;;;;;;;;;5059808;28;20455;-75
2023/07/29 06:23:17;;;;;;;2.47;1.73;;;;;;;;;;5059501;28;20029;-75
2023/07/29 06:25:42;;;;;;;2.63;1.67;;;;;;;;;;5054454;28;20273;-75
2023/07/29 06:28:09;;;;;;;1.02;1.02;;;;;;;;;;5042326;28;20796;-75
2023/07/29 06:30:35;;;;;;;1.42;1.30;;;;;;;;;;5055237;28;20544;-75
2023/07/29 06:33:00;;;;;;;1.00;1.00;;;;;;;;;;5055609;28;20039;-76
2023/07/29 06:35:25;;;;;;;2.05;1.95;;;;;;;;;;5057951;28;20047;-77
2023/07/29 06:37:51;;;;;;;1.55;1.45;;;;;;;;;;5054675;28;20784;-76
2023/07/29 06:40:16;;;;;;;2.00;1.40;;;;;;;;;;5045803;28;20067;-76
2023/07/29 06:42:42;;;;;;;1.63;1.52;;;;;;;;;;5056262;28;20437;-77
2023/07/29 06:45:08;;;;;;;2.50;1.80;;;;;;;;;;5058775;28;20033;-76
2023/07/29 06:47:33;;;;;;;1.40;1.30;;;;;;;;;;5054294;28;20101;-76
2023/07/29 06:49:59;;;;;;;2.70;1.30;;;;;;;;;;5036757;28;20041;-77
2023/07/29 06:52:24;;;;;;;1.48;1.38;;;;;;;;;;5066521;28;20124;-77
2023/07/29 06:54:49;;;;;;;1.88;1.77;;;;;;;;;;5047661;28;20048;-76
2023/07/29 06:57:15;;;;;;;1.73;1.63;;;;;;;;;;5054461;28;20036;-77
2023/07/29 06:59:40;;;;;;;1.90;1.80;;;;;;;;;;5062384;28;20078;-77
2023/07/29 07:02:07;;;;;;;1.80;1.70;;;;;;;;;;5059312;28;20044;-77
2023/07/29 07:04:32;;;;;;;1.05;1.00;;;;;;;;;;5062938;28;20028;-77
2023/07/29 07:06:57;;;;;;;2.00;1.90;;;;;;;;;;5047241;28;20075;-76
2023/07/29 07:09:23;;;;;;;1.48;1.38;;;;;;;;;;5052794;28;20044;-76
2023/07/29 07:11:48;;;;;;;1.75;1.65;;;;;;;;;;5054258;28;20044;-76
2023/07/29 07:14:13;;;;;;;1.17;1.17;;;;;;;;;;5053221;28;20093;-76
2023/07/29 07:16:39;;;;;;;1.70;1.60;;;;;;;;;;5049140;28;20390;-76
2023/07/29 07:19:04;;;;;;;2.33;1.35;;;;;;;;;;5044274;28;20039;-76
2023/07/29 07:21:30;;;;;;;1.17;1.15;;;;;;;;;;5040196;28;20049;-76
2023/07/29 07:23:55;;;;;;;0.90;0.90;;;;;;;;;;5043252;28;20036;-76
2023/07/29 07:26:21;;;;;;;1.25;1.15;;;;;;;;;;5042257;28;20562;-76
2023/07/29 07:28:46;;;;;;;1.40;1.30;;;;;;;;;;5050524;28;20040;-76
2023/07/29 07:31:11;;;;;;;1.27;1.20;;;;;;;;;;5060133;28;20048;-76
2023/07/29 07:33:37;;;;;;;1.48;1.25;;;;;;;;;;5043530;28;20067;-76
2023/07/29 07:36:02;;;;;;;1.33;1.23;;;;;;;;;;5066113;28;20504;-76
2023/07/29 07:38:28;;;;;;;1.20;1.20;;;;;;;;;;5057557;28;20121;-76
2023/07/29 07:40:57;;;;;;;1.13;1.02;;;;;;;;;;5065301;28;20039;-76
2023/07/29 07:43:23;;;;;;;0.77;0.77;;;;;;;;;;5052489;28;20404;-77
2023/07/29 07:45:48;;;;;;;1.40;1.30;;;;;;;;;;5061561;28;20055;-77
2023/07/29 07:48:14;;;;;;;1.65;1.50;;;;;;;;;;5056846;28;20094;-77
2023/07/29 07:50:39;;;;;;;1.15;1.15;;;;;;;;;;5039374;28;20526;-77
2023/07/29 07:53:05;;;;;;;1.70;1.60;;;;;;;;;;5052799;28;20033;-77
2023/07/29 07:55:30;;;;;;;2.38;1.20;;;;;;;;;;5038870;28;20054;-76
2023/07/29 07:57:56;;;;;;;2.55;1.40;;;;;;;;;;5054837;28;20040;-76
2023/07/29 08:00:21;;;;;;;1.25;1.15;;;;;;;;;;5040770;28;20611;-76
2023/07/29 08:02:47;;;;;;;1.50;1.40;;;;;;;;;;5048208;28;20614;-77
2023/07/29 08:05:12;;;;;;;1.27;0.90;;;;;;;;;;5042827;28;20492;-77
2023/07/29 08:07:37;;;;;;;1.48;1.38;;;;;;;;;;5051160;28;20056;-77
2023/07/29 08:10:04;;;;;;;0.98;0.98;;;;;;;;;;5052646;28;20040;-77
2023/07/29 08:12:30;;;;;;;1.00;1.00;;;;;;;;;;5052444;28;20044;-77
2023/07/29 08:14:55;;;;;;;1.70;1.10;;;;;;;;;;5053510;28;20091;-76
2023/07/29 08:17:21;;;;;;;1.40;1.30;;;;;;;;;;5051796;28;20055;-77
2023/07/29 08:19:46;;;;;;;1.58;1.38;;;;;;;;;;5051043;28;20125;-76
2023/07/29 08:22:11;;;;;;;1.35;1.10;;;;;;;;;;5051192;28;20565;-76
2023/07/29 08:24:37;;;;;;;1.50;1.40;;;;;;;;;;5063356;28;20040;-76
2023/07/29 08:27:02;;;;;;;1.60;1.25;;;;;;;;;;5056588;28;20124;-77
2023/07/29 08:29:27;;;;;;;2.28;1.27;;;;;;;;;;5056413;28;20039;-76
2023/07/29 08:31:55;;;;;;;1.50;1.33;;;;;;;;;;5046735;28;20052;-76
2023/07/29 08:34:20;;;;;;;1.30;1.13;;;;;;;;;;5042153;28;20037;-77
2023/07/29 08:36:46;;;;;;;1.30;1.20;;;;;;;;;;5058897;28;20032;-77
2023/07/29 08:39:11;;;;;;;3.38;1.52;;;;;;;;;;5061411;28;20039;-76
2023/07/29 08:41:51;;;;;;;1.52;1.42;;;;;;;;;;5060767;28;20127;-76
2023/07/29 08:44:29;;;;;;;0.73;0.73;;;;;;;;;;5058371;28;20032;-76
2023/07/29 08:46:57;;;;;;;1.88;1.35;;;;;;;;;;5035114;28;20053;-76
2023/07/29 08:49:24;;;;;;;0.98;0.98;;;;;;;;;;5058604;28;20060;-77
2023/07/29 08:51:53;;;;;;;2.38;1.17;;;;;;;;;;5055931;28;20066;-76
2023/07/29 08:54:18;;;;;;;1.50;1.40;;;;;;;;;;5049393;28;20043;-77
2023/07/29 08:56:45;;;;;;;1.55;1.45;;;;;;;;;;5060693;28;20036;-77
2023/07/29 08:59:11;;;;;;;1.35;1.25;;;;;;;;;;5046090;28;20066;-77
2023/07/29 09:01:38;;;;;;;1.50;1.40;;;;;;;;;;5050724;28;20052;-77
2023/07/29 09:04:04;;;;;;;0.85;0.85;;;;;;;;;;5059210;28;20123;-77
2023/07/29 09:06:31;;;;;;;1.52;1.20;;;;;;;;;;5069820;28;20140;-76
2023/07/29 09:08:56;;;;;;;0.90;0.90;;;;;;;;;;5067788;28;20079;-77
2023/07/29 09:11:22;;;;;;;1.45;1.35;;;;;;;;;;5061510;28;20048;-77
2023/07/29 09:13:48;;;;;;;0.90;0.90;;;;;;;;;;5035067;28;20048;-77
2023/07/29 09:16:14;;;;;;;2.15;1.70;;;;;;;;;;5063735;28;20052;-77
2023/07/29 09:18:40;;;;;;;1.30;1.20;;;;;;;;;;5063645;28;20032;-76
2023/07/29 09:21:05;;;;;;;1.70;1.60;;;;;;;;;;5060730;28;20090;-77
2023/07/29 09:23:44;;;;;;;1.10;1.10;;;;;;;;;;5062865;28;20039;-76
2023/07/29 09:26:10;;;;;;;2.13;1.40;;;;;;;;;;5048961;28;20064;-77
2023/07/29 09:28:38;;;;;;;1.25;1.15;;;;;;;;;;5048790;28;20046;-77
2023/07/29 09:31:04;;;;;;;0.77;0.77;;;;;;;;;;5048715;28;20877;-77
2023/07/29 09:33:34;;;;;;;1.30;1.20;;;;;;;;;;5032778;28;20124;-77
2023/07/29 09:36:01;;;;;;;1.00;1.00;;;;;;;;;;5049583;28;20029;-76
2023/07/29 09:38:28;;;;;;;1.48;1.25;;;;;;;;;;5021371;28;20604;-77
2023/07/29 09:40:58;;;;;;;1.20;1.10;;;;;;;;;;5073473;28;20122;-77
2023/07/29 09:43:30;;;;;;;1.33;1.23;;;;;;;;;;5052615;28;20134;-77
2023/07/29 09:46:00;;;;;;;0.95;0.80;;;;;;;;;;5057875;28;20081;-77
2023/07/29 09:48:25;;;;;;;1.30;1.20;;;;;;;;;;5059703;28;20051;-77
2023/07/29 09:50:51;;;;;;;0.80;0.80;;;;;;;;;;5053774;28;20032;-77
2023/07/29 09:53:16;;;;;;;1.00;1.00;;;;;;;;;;5065753;28;20388;-76
2023/07/29 09:55:46;;;;;;;1.98;1.20;;;;;;;;;;5060956;28;20120;-77
2023/07/29 09:58:12;;;;;;;1.83;1.42;;;;;;;;;;5055875;28;20032;-76
2023/07/29 10:00:38;;;;;;;2.08;1.60;;;;;;;;;;5063729;28;20088;-76
2023/07/29 10:03:04;;;;;;;1.40;1.30;;;;;;;;;;5064448;28;20095;-76
2023/07/29 10:05:30;;;;;;;1.10;1.10;;;;;;;;;;5037718;28;20674;-77
2023/07/29 10:07:56;;;;;;;1.00;1.00;;;;;;;;;;5049994;28;20075;-75
2023/07/29 10:10:22;;;;;;;1.17;1.10;;;;;;;;;;5060743;28;20181;-78
2023/07/29 10:12:47;;;;;;;1.10;1.10;;;;;;;;;;5057309;28;20040;-78
2023/07/29 10:15:14;;;;;;;1.15;1.05;;;;;;;;;;5054097;28;20040;-77
2023/07/29 10:17:39;;;;;;;1.50;1.38;;;;;;;;;;5042842;28;20057;-78
2023/07/29 10:20:07;;;;;;;1.50;1.40;;;;;;;;;;5039246;28;20103;-78
2023/07/29 10:22:40;;;;;;;1.00;1.00;;;;;;;;;;5043552;28;20040;-78
2023/07/29 10:25:18;;;;;;;1.50;1.40;;;;;;;;;;5060729;28;20036;-78
2023/07/29 10:27:53;;;;;;;2.25;1.65;;;;;;;;;;5048371;28;20037;-78
2023/07/29 10:30:19;;;;;;;1.77;1.63;;;;;;;;;;5052732;28;20040;-77
2023/07/29 10:32:45;;;;;;;1.33;1.30;;;;;;;;;;5067879;28;20059;-78
2023/07/29 10:35:14;;;;;;;1.15;0.95;;;;;;;;;;5065957;28;20036;-77
2023/07/29 10:37:40;;;;;;;0.98;0.98;;;;;;;;;;5068929;22;20180;-75
2023/07/29 10:40:08;;;;;;;1.60;1.50;;;;;;;;;;5005544;28;20042;-76
2023/07/29 10:42:34;;;;;;;1.17;1.10;;;;;;;;;;5006811;28;20049;-76
2023/07/29 10:45:00;;;;;;;0.88;0.82;;;;;;;;;;4986823;28;20037;-76
2023/07/29 10:47:28;;;;;;;1.50;1.40;;;;;;;;;;4987246;28;20049;-76
2023/07/29 10:49:58;;;;;;;1.38;1.27;;;;;;;;;;5024705;28;20073;-76
2023/07/29 10:52:35;;;;;;;1.42;1.33;;;;;;;;;;5025923;28;20119;-76
2023/07/29 10:55:03;;;;;;;1.00;1.00;;;;;;;;;;5007502;28;20030;-76
2023/07/29 10:57:36;;;;;;;1.33;1.23;;;;;;;;;;5018423;28;20034;-76
2023/07/29 11:00:04;;;;;;;1.70;1.58;;;;;;;;;;5026199;28;20052;-75
2023/07/29 11:02:32;;;;;;;1.80;1.50;;;;;;;;;;5016556;28;20104;-76
2023/07/29 11:04:58;;;;;;;1.40;1.30;;;;;;;;;;5005330;28;20044;-76
2023/07/29 11:07:28;;;;;;;1.80;1.70;;;;;;;;;;5025390;28;20037;-75
2023/07/29 11:09:57;;;;;;;1.70;1.60;;;;;;;;;;4990969;28;20025;-76
2023/07/29 11:12:51;;;;;;;1.50;1.40;;;;;;;;;;5031155;28;20029;-76
2023/07/29 11:15:26;;;;;;;0.95;0.95;;;;;;;;;;5014856;28;20072;-76
2023/07/29 11:18:01;;;;;;;1.33;1.00;;;;;;;;;;4994870;28;20049;-76
2023/07/29 11:20:32;;;;;;;1.65;1.55;;;;;;;;;;4999042;28;20048;-76
2023/07/29 11:23:00;;;;;;;1.20;1.10;;;;;;;;;;5024801;28;20068;-76
2023/07/29 11:25:28;;;;;;;1.30;1.20;;;;;;;;;;5009527;28;20049;-76
2023/07/29 11:27:55;;;;;;;2.10;1.70;;;;;;;;;;5027771;28;20037;-76
2023/07/29 11:30:22;;;;;;;1.77;1.67;;;;;;;;;;5009162;28;20399;-76
2023/07/29 11:32:47;;;;;;;1.67;1.52;;;;;;;;;;5009655;28;21774;-76
2023/07/29 11:35:15;;;;;;;2.30;1.60;;;;;;;;;;5009490;28;20037;-76
2023/07/29 11:37:43;;;;;;;1.67;1.58;;;;;;;;;;5022817;28;20036;-76
2023/07/29 11:40:10;;;;;;;1.50;1.40;;;;;;;;;;5022087;28;20871;-76
2023/07/29 11:42:36;;;;;;;2.85;1.60;;;;;;;;;;5025670;28;20123;-76
2023/07/29 11:45:03;;;;;;;2.00;1.88;;;;;;;;;;5023749;28;20950;-76
2023/07/29 11:47:31;;;;;;;1.70;1.60;;;;;;;;;;4999121;28;20038;-76
2023/07/29 11:50:03;;;;;;;1.20;1.10;;;;;;;;;;5018462;28;20037;-76
2023/07/29 11:52:31;;;;;;;1.58;1.48;;;;;;;;;;5014163;28;20068;-74
2023/07/29 11:54:57;;;;;;;1.00;1.00;;;;;;;;;;5022244;28;20068;-74
2023/07/29 11:57:23;;;;;;;1.70;1.60;;;;;;;;;;5025752;28;20061;-75
2023/07/29 11:59:49;;;;;;;1.58;1.48;;;;;;;;;;5012466;28;20037;-74
2023/07/29 12:02:16;;;;;;;1.55;1.45;;;;;;;;;;5022066;28;20041;-74
2023/07/29 12:04:43;;;;;;;1.70;1.60;;;;;;;;;;5024543;28;20037;-75
2023/07/29 12:07:09;;;;;;;3.05;1.33;;;;;;;;;;5012682;28;20218;-74
2023/07/29 12:09:35;;;;;;;2.10;1.60;;;;;;;;;;5016540;28;20509;-74
2023/07/29 12:12:03;;;;;;;1.10;1.10;;;;;;;;;;5010219;28;20572;-73
2023/07/29 12:14:29;;;;;;;1.88;1.73;;;;;;;;;;4987558;28;20116;-74
2023/07/29 12:16:54;;;;;;;1.85;1.73;;;;;;;;;;5006356;28;20612;-74
2023/07/29 12:19:21;;;;;;;1.38;1.27;;;;;;;;;;4998141;28;20044;-74
2023/07/29 12:21:48;;;;;;;1.20;1.10;;;;;;;;;;5014481;28;20162;-75
2023/07/29 12:24:14;;;;;;;1.77;1.67;;;;;;;;;;5024563;28;20113;-73
2023/07/29 12:26:41;;;;;;;1.27;1.10;;;;;;;;;;5014352;28;20076;-74
2023/07/29 12:29:13;;;;;;;1.50;1.25;;;;;;;;;;5023406;28;20042;-74
2023/07/29 12:31:38;;;;;;;1.80;1.70;;;;;;;;;;5005428;28;20111;-74
2023/07/29 12:34:04;;;;;;;2.83;1.50;;;;;;;;;;5006478;28;20743;-74
2023/07/29 12:36:49;;;;;;;1.80;1.70;;;;;;;;;;5025552;28;20045;-75
2023/07/29 12:39:18;;;;;;;2.05;1.95;;;;;;;;;;4995916;28;20045;-74
2023/07/29 12:41:44;;;;;;;1.60;1.50;;;;;;;;;;5006343;28;20049;-74
2023/07/29 12:44:10;;;;;;;1.90;1.80;;;;;;;;;;5007826;28;20804;-74
2023/07/29 12:46:35;;;;;;;1.88;1.77;;;;;;;;;;5022913;28;20124;-73
2023/07/29 12:49:00;;;;;;;1.92;1.83;;;;;;;;;;5022350;28;20031;-73
2023/07/29 12:51:26;;;;;;;1.50;1.40;;;;;;;;;;5020774;28;20585;-75
2023/07/29 12:53:52;;;;;;;2.00;1.80;;;;;;;;;;4979619;28;20110;-74
2023/07/29 12:56:17;;;;;;;1.90;1.58;;;;;;;;;;5003959;28;20191;-75
2023/07/29 12:58:42;;;;;;;1.35;1.17;;;;;;;;;;5014758;28;20041;-74
2023/07/29 13:01:09;;;;;;;1.45;1.35;;;;;;;;;;4994742;28;20057;-75
2023/07/29 13:03:34;;;;;;;2.15;1.80;;;;;;;;;;5022296;28;20744;-75
2023/07/29 13:05:59;;;;;;;1.92;1.80;;;;;;;;;;5008700;28;20048;-75
2023/07/29 13:08:25;;;;;;;1.52;1.42;;;;;;;;;;5019827;28;20425;-75
2023/07/29 13:10:50;;;;;;;1.70;1.60;;;;;;;;;;5010481;28;20041;-74
2023/07/29 13:13:15;;;;;;;1.10;1.10;;;;;;;;;;5023380;28;20076;-76
2023/07/29 13:15:41;;;;;;;2.13;1.83;;;;;;;;;;5019486;28;20417;-76
2023/07/29 13:18:06;;;;;;;2.08;1.88;;;;;;;;;;5020859;28;20095;-75
2023/07/29 13:20:33;;;;;;;1.60;1.50;;;;;;;;;;5014369;28;20037;-75
2023/07/29 13:22:58;;;;;;;1.90;1.70;;;;;;;;;;5023512;28;20495;-74
2023/07/29 13:25:24;;;;;;;1.50;1.40;;;;;;;;;;5000844;28;20037;-75
2023/07/29 13:27:49;;;;;;;1.83;1.70;;;;;;;;;;5007250;28;20382;-73
2023/07/29 13:30:16;;;;;;;3.25;2.03;;;;;;;;;;5019988;28;20092;-75
2023/07/29 13:32:41;;;;;;;2.08;1.80;;;;;;;;;;5022539;28;20033;-75
2023/07/29 13:35:07;;;;;;;1.90;1.67;;;;;;;;;;5013273;28;20119;-74
2023/07/29 13:37:32;;;;;;;2.47;1.90;;;;;;;;;;5010067;28;20048;-75
2023/07/29 13:39:58;;;;;;;3.35;2.30;;;;;;;;;;5019872;28;20061;-75
2023/07/29 13:42:23;;;;;;;2.30;1.60;;;;;;;;;;5017687;28;20083;-74
2023/07/29 13:44:48;;;;;;;1.50;1.40;;;;;;;;;;5022662;28;20500;-75
2023/07/29 13:47:14;;;;;;;1.70;1.60;;;;;;;;;;5025501;28;20185;-75
2023/07/29 13:49:39;;;;;;;2.10;1.95;;;;;;;;;;5011709;28;20041;-75
2023/07/29 13:52:04;;;;;;;2.58;2.13;;;;;;;;;;5022260;28;20539;-74
2023/07/29 13:54:30;;;;;;;1.90;1.80;;;;;;;;;;5023954;28;20045;-75
2023/07/29 13:56:55;;;;;;;2.30;2.10;;;;;;;;;;5012253;28;20044;-75
2023/07/29 13:59:20;;;;;;;1.80;1.70;;;;;;;;;;5026010;28;20078;-74
2023/07/29 14:01:46;;;;;;;3.67;2.22;;;;;;;;;;5029556;28;20056;-75
2023/07/29 14:04:11;;;;;;;2.67;2.20;;;;;;;;;;5012510;28;20044;-75
2023/07/29 14:06:36;;;;;;;2.28;2.08;;;;;;;;;;5009453;28;20163;-74
2023/07/29 14:09:02;;;;;;;4.10;2.30;;;;;;;;;;5026573;28;20037;-75
2023/07/29 14:11:27;;;;;;;3.15;2.03;;;;;;;;;;5028142;28;20033;-74
2023/07/29 14:13:53;;;;;;;1.83;1.63;;;;;;;;;;5008451;28;20596;-74
2023/07/29 14:16:18;;;;;;;1.88;1.77;;;;;;;;;;5024499;28;20037;-74
2023/07/29 14:18:43;;;;;;;1.85;1.75;;;;;;;;;;5020129;28;20029;-75
2023/07/29 14:21:09;;;;;;;1.80;1.70;;;;;;;;;;5024556;28;20464;-75
2023/07/29 14:23:34;;;;;;;2.53;2.00;;;;;;;;;;5027506;28;20057;-74
2023/07/29 14:25:59;;;;;;;2.13;2.03;;;;;;;;;;5027412;28;20037;-74
2023/07/29 14:28:25;;;;;;;2.17;2.00;;;;;;;;;;5030660;28;20064;-74
2023/07/29 14:30:50;;;;;;;2.38;1.95;;;;;;;;;;5019989;28;20057;-75
2023/07/29 14:33:15;;;;;;;2.30;1.63;;;;;;;;;;5014723;28;20548;-74
2023/07/29 14:35:41;;;;;;;1.80;1.70;;;;;;;;;;5026279;28;20516;-74
2023/07/29 14:38:06;;;;;;;2.72;1.60;;;;;;;;;;5019687;28;20041;-75
2023/07/29 14:40:31;;;;;;;1.50;1.40;;;;;;;;;;5027936;28;20037;-75